Time;durP1;ratioP1;P1;durP2;ratioP2;P2;SDS_P1;SDS_P2;PMS_P1;PMS_P2;Temp;Humidity;BMP_temperature;BMP_pressure;BME280_temperature;BME280_humidity;BME280_pressure;Samples;Min_cycle;Max_cycle;Signal;HPM_P1;HPM_P2
2022/12/17 13:08:07;;;;;;;;;;;;;;;-0.76;100.00;102450.91;5277684;28;19919;-73
2022/12/17 13:10:39;;;;;;;;;;;;;;;-0.78;100.00;102452.66;5279528;28;19921;-74
2022/12/17 13:13:23;;;;;;;;;;;;;;;-0.80;100.00;102440.41;5276052;28;19967;-73
2022/12/17 13:16:14;;;;;;;;;;;;;;;-0.79;100.00;102436.03;5276538;28;20126;-73
2022/12/17 13:18:45;;;;;;;;;;;;;;;-0.81;100.00;102450.91;5281908;28;19920;-73
2022/12/17 13:21:17;;;;;;;;;;;;;;;-0.85;100.00;102444.78;5291434;28;19973;-74
2022/12/17 13:23:48;;;;;;;;;;;;;;;-0.88;100.00;102455.31;5295261;28;19920;-73
2022/12/17 13:26:42;;;;;;;;;;;;;;;-0.91;100.00;102450.06;5296416;28;19918;-73
2022/12/17 13:29:28;;;;;;;;;;;;;;;-0.85;100.00;102444.78;5272211;28;19927;-73
2022/12/17 13:31:59;;;;;;;;;;;;;;;-0.88;100.00;102443.91;5289723;28;19920;-74
2022/12/17 13:34:45;;;;;;;;;;;;;;;-0.92;100.00;102439.56;5294337;28;19951;-73
2022/12/17 13:37:35;;;;;;;;;;;;;;;-0.98;100.00;102437.84;5297116;28;19926;-73
2022/12/17 13:40:06;;;;;;;;;;;;;;;-0.99;100.00;102436.13;5281605;28;19920;-73
2022/12/17 13:42:38;;;;;;;;;;;;;;;-1.03;100.00;102435.25;5295691;28;19923;-73
2022/12/17 13:45:14;;;;;;;;;;;;;;;-1.06;100.00;102434.38;5288044;28;19955;-73
2022/12/17 13:47:52;;;;;;;;;;;;;;;-1.09;100.00;102440.50;5286292;28;20504;-73
2022/12/17 13:50:25;;;;;;;;;;;;;;;-1.09;100.00;102445.75;5297250;28;20031;-73
2022/12/17 13:53:07;;;;;;;;;;;;;;;-1.05;100.00;102437.00;5286009;28;19921;-73
2022/12/17 13:55:38;;;;;;;;;;;;;;;-1.08;100.00;102438.75;5281244;28;19967;-73
2022/12/17 13:58:20;;;;;;;;;;;;;;;-1.08;100.00;102442.22;5292016;28;19952;-73
2022/12/17 14:01:13;;;;;;;;;;;;;;;-1.14;100.00;102446.63;5282746;28;19925;-73
2022/12/17 14:03:49;;;;;;;;;;;;;;;-1.20;100.00;102447.50;5297687;28;20361;-73
2022/12/17 14:06:21;;;;;;;;;;;;;;;-1.22;100.00;102444.88;5286421;28;19916;-73
2022/12/17 14:08:53;;;;;;;;;;;;;;;-1.24;100.00;102444.03;5289181;28;19924;-73
2022/12/17 14:14:27;;;;;;;;;;;;;;;-1.27;100.00;102444.00;5285562;28;20366;-73
2022/12/17 14:16:59;;;;;;;;;;;;;;;-1.30;100.00;102443.16;5283307;28;19927;-73
2022/12/17 14:19:31;;;;;;;;;;;;;;;-1.31;100.00;102449.28;5285295;28;19920;-73
2022/12/17 14:22:02;;;;;;;;;;;;;;;-1.33;100.00;102454.50;5295135;28;20297;-73
2022/12/17 14:24:33;;;;;;;;;;;;;;;-1.39;100.00;102450.13;5292404;28;19920;-73
2022/12/17 14:27:05;;;;;;;;;;;;;;;-1.36;100.00;102461.47;5284324;28;21358;-73
2022/12/17 14:29:45;;;;;;;;;;;;;;;-1.43;100.00;102458.00;5282575;28;20007;-73
2022/12/17 14:32:24;;;;;;;;;;;;;;;-1.51;100.00;102454.53;5277383;28;19928;-74
2022/12/17 14:34:55;;;;;;;;;;;;;;;-1.56;100.00;102459.75;5282400;28;19927;-73
2022/12/17 14:37:27;;;;;;;;;;;;;;;-1.61;100.00;102464.09;5294443;28;19973;-73
2022/12/17 14:40:00;;;;;;;;;;;;;;;-1.65;100.00;102464.97;5286824;28;19959;-73
2022/12/17 14:42:34;;;;;;;;;;;;;;;-1.69;100.00;102466.72;5290560;28;20378;-73
2022/12/17 14:45:11;;;;;;;;;;;;;;;-1.69;100.00;102469.31;5297200;28;20351;-73
2022/12/17 14:47:56;;;;;;;;;;;;;;;-1.77;100.00;102477.19;5285444;28;20378;-74
2022/12/17 14:50:32;;;;;;;;;;;;;;;-1.83;100.00;102479.78;5287456;28;19927;-73
2022/12/17 14:53:22;;;;;;;;;;;;;;;-1.89;100.00;102482.41;5290066;28;19985;-73
2022/12/17 14:55:54;;;;;;;;;;;;;;;-1.95;100.00;102479.78;5290012;28;19956;-73
2022/12/17 14:58:26;;;;;;;;;;;;;;;-1.99;100.00;102478.03;5288487;28;19923;-73
2022/12/17 15:01:03;;;;;;;;;;;;;;;-2.02;100.00;102483.25;5295218;28;19924;-73
2022/12/17 15:03:45;;;;;;;;;;;;;;;-2.05;100.00;102494.59;5298429;28;19923;-73
2022/12/17 15:06:17;;;;;;;;;;;;;;;-2.04;100.00;102493.69;5291090;28;19920;-73
2022/12/17 15:08:49;;;;;;;;;;;;;;;-2.01;100.00;102490.25;5290600;28;19941;-73
2022/12/17 15:11:21;;;;;;;;;;;;;;;-2.02;100.00;102491.09;5279298;28;19916;-73
2022/12/17 15:13:53;;;;;;;;;;;;;;;-1.99;100.00;102489.38;5295987;28;19935;-73
2022/12/17 15:16:24;;;;;;;;;;;;;;;-2.01;100.00;102480.63;5291420;28;19917;-73
2022/12/17 15:18:55;;;;;;;;;;;;;;;-1.99;100.00;102497.22;5295924;28;19912;-73
2022/12/17 15:21:26;;;;;;;;;;;;;;;-1.98;100.00;102500.69;5273373;28;19916;-73
2022/12/17 15:23:57;;;;;;;;;;;;;;;-1.96;100.00;102512.03;5301513;28;19961;-73
2022/12/17 15:26:29;;;;;;;;;;;;;;;-1.97;100.00;102513.78;5291295;28;19943;-73
2022/12/17 15:29:01;;;;;;;;;;;;;;;-1.96;100.00;102514.63;5281855;28;19998;-73
2022/12/17 15:31:32;;;;;;;;;;;;;;;-1.99;100.00;102514.66;5290320;28;19924;-73
2022/12/17 15:34:03;;;;;;;;;;;;;;;-2.00;100.00;102523.34;5262763;28;19920;-73
2022/12/17 15:36:34;;;;;;;;;;;;;;;-2.05;100.00;102518.13;5289207;28;19961;-73
2022/12/17 15:39:07;;;;;;;;;;;;;;;-2.07;100.00;102517.25;5295085;28;19969;-73
2022/12/17 15:44:28;;;;;;;;;;;;;;;-2.12;100.00;102524.19;5285907;28;19924;-73
2022/12/17 15:46:59;;;;;;;;;;;;;;;-2.13;100.00;102518.94;5280609;28;19920;-73
2022/12/17 15:49:30;;;;;;;;;;;;;;;-2.12;100.00;102525.94;5286811;28;19967;-73
2022/12/17 15:52:02;;;;;;;;;;;;;;;-2.11;100.00;102527.66;5280024;28;19965;-72
2022/12/17 15:54:33;;;;;;;;;;;;;;;-2.12;100.00;102521.59;5289889;28;19971;-73
2022/12/17 15:57:04;;;;;;;;;;;;;;;-2.12;100.00;102529.41;5288549;28;20003;-73
2022/12/17 15:59:35;;;;;;;;;;;;;;;-2.13;100.00;102534.66;5295466;28;20476;-74
2022/12/17 16:02:08;;;;;;;;;;;;;;;-2.14;100.00;102538.16;5292556;28;19931;-74
2022/12/17 16:04:39;;;;;;;;;;;;;;;-2.15;100.00;102539.00;5296372;28;19922;-73
2022/12/17 16:07:11;;;;;;;;;;;;;;;-2.13;100.00;102545.09;5283291;28;19925;-73
2022/12/17 16:09:42;;;;;;;;;;;;;;;-2.12;100.00;102539.88;5299991;28;19965;-73
2022/12/17 16:12:13;;;;;;;;;;;;;;;-2.12;100.00;102541.63;5276732;28;19916;-73
2022/12/17 16:14:44;;;;;;;;;;;;;;;-2.16;100.00;102538.13;5294986;28;19920;-74
2022/12/17 16:17:15;;;;;;;;;;;;;;;-2.22;100.00;102536.38;5281673;28;20010;-74
2022/12/17 16:19:47;;;;;;;;;;;;;;;-2.27;100.00;102538.06;5287507;28;20435;-73
2022/12/17 16:22:18;;;;;;;;;;;;;;;-2.32;100.00;102528.47;5293472;28;19916;-73
2022/12/17 16:24:51;;;;;;;;;;;;;;;-2.35;100.00;102533.69;5296246;28;19928;-73
2022/12/17 16:27:22;;;;;;;;;;;;;;;-2.38;100.00;102530.22;5290707;28;19931;-73
2022/12/17 16:29:53;;;;;;;;;;;;;;;-2.39;100.00;102535.41;5286034;28;20327;-73
2022/12/17 16:32:25;;;;;;;;;;;;;;;-2.40;100.00;102536.28;5297080;28;19920;-73
2022/12/17 16:34:56;;;;;;;;;;;;;;;-2.41;100.00;102540.63;5282781;28;19920;-73
2022/12/17 16:37:27;;;;;;;;;;;;;;;-2.40;100.00;102547.63;5283597;28;20336;-73
2022/12/17 16:39:58;;;;;;;;;;;;;;;-2.37;100.00;102536.31;5293921;28;19916;-73
2022/12/17 16:42:29;;;;;;;;;;;;;;;-2.37;100.00;102538.91;5282773;28;19916;-73
2022/12/17 16:45:00;;;;;;;;;;;;;;;-2.37;100.00;102536.31;5283155;28;20455;-73
2022/12/17 16:47:32;;;;;;;;;;;;;;;-2.39;100.00;102538.91;5288384;28;19920;-73
2022/12/17 16:50:03;;;;;;;;;;;;;;;-2.41;100.00;102545.88;5279100;28;19999;-73
2022/12/17 16:52:34;;;;;;;;;;;;;;;-2.44;100.00;102540.59;5283439;28;19920;-73
2022/12/17 16:55:06;;;;;;;;;;;;;;;-2.48;100.00;102546.69;5296761;28;19920;-73
2022/12/17 16:57:37;;;;;;;;;;;;;;;-2.51;100.00;102544.09;5284473;28;19920;-73
2022/12/17 17:00:08;;;;;;;;;;;;;;;-2.51;100.00;102553.63;5286011;28;20320;-73
2022/12/17 17:02:40;;;;;;;;;;;;;;;-2.49;100.00;102546.69;5290230;28;20345;-73
2022/12/17 17:05:11;;;;;;;;;;;;;;;-2.52;100.00;102537.09;5285369;28;19968;-73
2022/12/17 17:07:43;;;;;;;;;;;;;;;-2.55;100.00;102537.09;5297242;28;19916;-73
2022/12/17 17:10:14;;;;;;;;;;;;;;;-2.58;100.00;102542.28;5289622;28;20007;-73
2022/12/17 17:12:45;;;;;;;;;;;;;;;-2.61;100.00;102547.50;5289457;28;20409;-73
2022/12/17 17:15:16;;;;;;;;;;;;;;;-2.61;100.00;102547.50;5288966;28;19920;-72
2022/12/17 17:17:48;;;;;;;;;;;;;;;-2.63;100.00;102550.13;5294362;28;19973;-72
2022/12/17 17:20:19;;;;;;;;;;;;;;;-2.69;100.00;102560.50;5295309;28;19920;-72
2022/12/17 17:22:50;;;;;;;;;;;;;;;-2.71;100.00;102563.97;5271900;28;19920;-72
2022/12/17 17:25:21;;;;;;;;;;;;;;;-2.81;100.00;102560.44;5281321;28;19922;-72
2022/12/17 17:27:53;;;;;;;;;;;;;;;-2.84;100.00;102563.03;5286055;28;20312;-72
2022/12/17 17:30:24;;;;;;;;;;;;;;;-2.88;100.00;102567.34;5278155;28;20009;-73
2022/12/17 17:32:55;;;;;;;;;;;;;;;-2.87;100.00;102563.03;5286884;28;21067;-72
2022/12/17 17:35:26;;;;;;;;;;;;;;;-2.87;100.00;102565.63;5283403;28;19921;-72
2022/12/17 17:37:57;;;;;;;;;;;;;;;-2.90;100.00;102571.69;5288612;28;19924;-72
2022/12/17 17:40:28;;;;;;;;;;;;;;;-2.88;100.00;102579.53;5286371;28;20362;-73
2022/12/17 17:43:00;;;;;;;;;;;;;;;-2.90;100.00;102574.28;5278551;28;19916;-72
2022/12/17 17:45:32;;;;;;;;;;;;;;;-2.94;100.00;102574.28;5278774;28;20294;-72
2022/12/17 17:48:03;;;;;;;;;;;;;;;-2.93;100.00;102573.41;5286773;28;19920;-72
2022/12/17 17:50:34;;;;;;;;;;;;;;;-2.99;100.00;102579.47;5285083;28;20277;-72
2022/12/17 17:53:05;;;;;;;;;;;;;;;-3.04;100.00;102575.94;5287677;28;19932;-72
2022/12/17 17:55:37;;;;;;;;;;;;;;;-3.09;100.00;102575.03;5280501;28;19922;-72
2022/12/17 17:58:08;;;;;;;;;;;;;;;-3.13;100.00;102575.88;5286367;28;19970;-73
2022/12/17 18:00:39;;;;;;;;;;;;;;;-3.20;100.00;102567.13;5282440;28;20294;-72
2022/12/17 18:03:10;;;;;;;;;;;;;;;-3.22;100.00;102571.44;5288726;28;19927;-72
2022/12/17 18:05:41;;;;;;;;;;;;;;;-3.26;100.00;102572.25;5284322;28;20288;-72
2022/12/17 18:08:13;;;;;;;;;;;;;;;-3.27;100.00;102570.53;5294259;28;19912;-73
2022/12/17 18:10:53;;;;;;;;;;;;;;;-3.26;100.00;102567.94;5288313;28;19920;-73
2022/12/17 18:16:14;;;;;;;;;;;;;;;-3.29;100.00;102580.94;5293913;28;20281;-73
2022/12/17 18:18:45;;;;;;;;;;;;;;;-3.29;100.00;102572.25;5285535;28;19916;-72
2022/12/17 18:21:18;;;;;;;;;;;;;;;-3.28;100.00;102574.88;5294240;28;20330;-72
2022/12/17 18:23:54;;;;;;;;;;;;;;;-3.28;100.00;102574.88;5290752;28;19943;-72
2022/12/17 18:26:26;;;;;;;;;;;;;;;-3.29;100.00;102588.78;5282248;28;19927;-72
2022/12/17 18:29:01;;;;;;;;;;;;;;;-3.25;100.00;102576.63;5288359;28;19928;-72
2022/12/17 18:31:33;;;;;;;;;;;;;;;-3.24;100.00;102570.53;5289052;28;19927;-72
2022/12/17 18:34:07;;;;;;;;;;;;;;;-3.22;100.00;102572.31;5292154;28;20293;-72
2022/12/17 18:36:39;;;;;;;;;;;;;;;-3.23;100.00;102569.69;5291172;28;19927;-72
2022/12/17 18:39:13;;;;;;;;;;;;;;;-3.23;100.00;102567.94;5285231;28;19927;-72
2022/12/17 18:44:35;;;;;;;;;;;;;;;-3.28;100.00;102581.81;5294563;28;19920;-73
2022/12/17 18:47:07;;;;;;;;;;;;;;;-3.32;100.00;102580.03;5284771;28;19920;-72
2022/12/17 18:49:38;;;;;;;;;;;;;;;-3.35;100.00;102562.63;5278914;28;19963;-72
2022/12/17 18:52:09;;;;;;;;;;;;;;;-3.44;100.00;102573.84;5296831;28;19920;-72
2022/12/17 18:54:41;;;;;;;;;;;;;;;-3.45;100.00;102576.44;5286314;28;20043;-73
2022/12/17 18:57:12;;;;;;;;;;;;;;;-3.47;100.00;102583.38;5282951;28;19921;-72
2022/12/17 18:59:43;;;;;;;;;;;;;;;-3.47;100.00;102579.06;5293876;28;19916;-72
2022/12/17 19:02:14;;;;;;;;;;;;;;;-3.46;100.00;102586.00;5282897;28;20374;-73
2022/12/17 19:04:45;;;;;;;;;;;;;;;-3.46;100.00;102579.94;5294115;28;19916;-73
2022/12/17 19:07:17;;;;;;;;;;;;;;;-3.47;100.00;102592.09;5297524;28;19924;-72
2022/12/17 19:09:48;;;;;;;;;;;;;;;-3.46;100.00;102588.63;5294079;28;19927;-72
2022/12/17 19:12:19;;;;;;;;;;;;;;;-3.45;100.00;102592.09;5290356;28;19924;-73
2022/12/17 19:14:50;;;;;;;;;;;;;;;-3.43;100.00;102590.38;5299146;28;19930;-73
2022/12/17 19:17:21;;;;;;;;;;;;;;;-3.42;100.00;102594.75;5297812;28;19925;-73
2022/12/17 19:19:53;;;;;;;;;;;;;;;-3.39;100.00;102600.00;5279992;28;19917;-73
2022/12/17 19:22:24;;;;;;;;;;;;;;;-3.42;100.00;102600.84;5289531;28;19916;-72
2022/12/17 19:24:55;;;;;;;;;;;;;;;-3.42;100.00;102605.19;5286946;28;20571;-73
2022/12/17 19:27:27;;;;;;;;;;;;;;;-3.44;100.00;102607.78;5290104;28;19920;-73
2022/12/17 19:29:58;;;;;;;;;;;;;;;-3.43;100.00;102614.75;5288141;28;19954;-72
2022/12/17 19:32:30;;;;;;;;;;;;;;;-3.43;100.00;102613.84;5287008;28;19916;-73
2022/12/17 19:35:01;;;;;;;;;;;;;;;-3.42;100.00;102615.63;5294883;28;19928;-73
2022/12/17 19:37:32;;;;;;;;;;;;;;;-3.43;100.00;102611.25;5293300;28;19924;-73
2022/12/17 19:40:04;;;;;;;;;;;;;;;-3.45;100.00;102620.78;5292479;28;19920;-73
2022/12/17 19:42:35;;;;;;;;;;;;;;;-3.47;100.00;102622.53;5295144;28;19927;-73
2022/12/17 19:45:06;;;;;;;;;;;;;;;-3.48;100.00;102611.22;5291762;28;19920;-73
2022/12/17 19:47:38;;;;;;;;;;;;;;;-3.50;100.00;102609.47;5289019;28;20378;-73
2022/12/17 19:50:09;;;;;;;;;;;;;;;-3.50;100.00;102605.09;5279656;28;19924;-73
2022/12/17 19:52:40;;;;;;;;;;;;;;;-3.50;100.00;102610.31;5280605;28;19978;-73
2022/12/17 19:55:11;;;;;;;;;;;;;;;-3.50;100.00;102604.25;5292017;28;20386;-73
2022/12/17 19:57:42;;;;;;;;;;;;;;;-3.52;100.00;102605.97;5287349;28;19923;-73
2022/12/17 20:00:14;;;;;;;;;;;;;;;-3.52;100.00;102617.25;5292789;28;19963;-73
2022/12/17 20:02:45;;;;;;;;;;;;;;;-3.53;100.00;102620.72;5295114;28;20365;-73
2022/12/17 20:05:16;;;;;;;;;;;;;;;-3.52;100.00;102612.03;5308112;28;20016;-73
2022/12/17 20:07:47;;;;;;;;;;;;;;;-3.50;100.00;102615.53;5296972;28;19965;-73
2022/12/17 20:10:19;;;;;;;;;;;;;;;-3.49;100.00;102616.41;5283831;28;20336;-73
2022/12/17 20:12:50;;;;;;;;;;;;;;;-3.48;100.00;102624.25;5299018;28;19912;-73
2022/12/17 20:15:21;;;;;;;;;;;;;;;-3.51;100.00;102634.66;5308433;28;20437;-73
2022/12/17 20:17:52;;;;;;;;;;;;;;;-3.52;100.00;102643.34;5296207;28;20027;-73
2022/12/17 20:20:23;;;;;;;;;;;;;;;-3.52;100.00;102647.72;5288294;28;19920;-73
2022/12/17 20:22:55;;;;;;;;;;;;;;;-3.54;100.00;102645.06;5281807;28;20370;-73
2022/12/17 20:25:26;;;;;;;;;;;;;;;-3.51;100.00;102646.84;5290747;28;19917;-73
2022/12/17 20:27:57;;;;;;;;;;;;;;;-3.48;100.00;102642.53;5282948;28;19927;-73
2022/12/17 20:30:28;;;;;;;;;;;;;;;-3.47;100.00;102646.91;5291608;28;19920;-73
2022/12/17 20:32:59;;;;;;;;;;;;;;;-3.49;100.00;102629.47;5290830;28;20283;-73
2022/12/17 20:35:31;;;;;;;;;;;;;;;-3.51;100.00;102633.78;5286213;28;20022;-73
2022/12/17 20:38:02;;;;;;;;;;;;;;;-3.52;100.00;102632.91;5290750;28;19920;-73
2022/12/17 20:40:36;;;;;;;;;;;;;;;-3.50;100.00;102622.50;5282830;28;19999;-73
2022/12/17 20:43:08;;;;;;;;;;;;;;;-3.52;100.00;102619.00;5279654;28;19972;-74
2022/12/17 20:45:46;;;;;;;;;;;;;;;-3.53;100.00;102625.06;5289348;28;19993;-73
2022/12/17 20:48:17;;;;;;;;;;;;;;;-3.56;100.00;102625.91;5295131;28;19923;-72
2022/12/17 20:50:49;;;;;;;;;;;;;;;-3.56;100.00;102618.97;5291858;28;19916;-73
2022/12/17 20:53:23;;;;;;;;;;;;;;;-3.58;100.00;102620.69;5288726;28;19924;-74
2022/12/17 20:55:58;;;;;;;;;;;;;;;-3.62;100.00;102616.28;5302132;28;19923;-73
2022/12/17 20:58:29;;;;;;;;;;;;;;;-3.64;100.00;102614.53;5294435;28;20378;-73
2022/12/17 21:01:02;;;;;;;;;;;;;;;-3.65;100.00;102618.00;5285102;28;19919;-73
2022/12/17 21:03:34;;;;;;;;;;;;;;;-3.63;100.00;102624.09;5284255;28;19945;-73
2022/12/17 21:06:09;;;;;;;;;;;;;;;-3.64;100.00;102627.59;5290873;28;20355;-72
2022/12/17 21:08:41;;;;;;;;;;;;;;;-3.64;100.00;102630.19;5282088;28;19920;-73
2022/12/17 21:11:13;;;;;;;;;;;;;;;-3.66;100.00;102626.66;5281379;28;19926;-73
2022/12/17 21:13:44;;;;;;;;;;;;;;;-3.68;100.00;102620.56;5294807;28;19926;-73
2022/12/17 21:16:17;;;;;;;;;;;;;;;-3.71;100.00;102623.16;5288799;28;19916;-72
2022/12/17 21:18:48;;;;;;;;;;;;;;;-3.73;100.00;102632.69;5283867;28;19916;-73
2022/12/17 21:21:21;;;;;;;;;;;;;;;-3.75;100.00;102635.28;5294077;28;19942;-73
2022/12/17 21:23:53;;;;;;;;;;;;;;;-3.76;100.00;102633.50;5288651;28;20384;-73
2022/12/17 21:26:29;;;;;;;;;;;;;;;-3.79;100.00;102634.34;5294160;28;20366;-73
2022/12/17 21:29:02;;;;;;;;;;;;;;;-3.79;100.00;102636.09;5294056;28;19976;-73
2022/12/17 21:31:39;;;;;;;;;;;;;;;-3.78;100.00;102636.13;5296705;28;19920;-73
2022/12/17 21:34:12;;;;;;;;;;;;;;;-3.77;100.00;102643.06;5285340;28;19924;-73
2022/12/17 21:36:43;;;;;;;;;;;;;;;-3.76;100.00;102642.22;5282692;28;19927;-73
2022/12/17 21:39:15;;;;;;;;;;;;;;;-3.79;100.00;102634.34;5284479;28;19917;-73
2022/12/17 21:43:00;;;;;;;;;;;;;;;-3.81;100.00;102635.19;5290375;28;19924;-73
2022/12/17 21:44:37;;;;;;;;;;;;;;;-3.83;100.00;102643.00;5284198;28;19920;-73
2022/12/17 21:47:08;;;;;;;;;;;;;;;-3.83;100.00;102647.34;5278317;28;19920;-73
2022/12/17 21:49:39;;;;;;;;;;;;;;;-3.84;100.00;102650.78;5283688;28;19916;-73
2022/12/17 21:52:10;;;;;;;;;;;;;;;-3.88;100.00;102649.88;5293196;28;19964;-73
2022/12/17 21:54:44;;;;;;;;;;;;;;;-3.90;100.00;102646.38;5281887;28;21296;-73
2022/12/17 21:57:15;;;;;;;;;;;;;;;-3.92;100.00;102645.50;5281769;28;19920;-72
2022/12/17 21:59:47;;;;;;;;;;;;;;;-3.94;100.00;102660.25;5302129;28;19923;-73
2022/12/17 22:02:18;;;;;;;;;;;;;;;-3.95;100.00;102646.34;5291022;28;20023;-73
2022/12/17 22:04:49;;;;;;;;;;;;;;;-3.95;100.00;102655.88;5272203;28;19926;-73
2022/12/17 22:07:20;;;;;;;;;;;;;;;-3.97;100.00;102657.56;5278257;28;19920;-73
2022/12/17 22:09:51;;;;;;;;;;;;;;;-3.99;100.00;102652.38;5277649;28;20009;-73
2022/12/17 22:15:12;;;;;;;;;;;;;;;-4.02;100.00;102664.50;5289346;28;19928;-73
2022/12/17 22:17:43;;;;;;;;;;;;;;;-4.03;100.00;102673.16;5278283;28;20267;-73
2022/12/17 22:20:15;;;;;;;;;;;;;;;-4.05;100.00;102674.88;5285305;28;20370;-73
2022/12/17 22:22:46;;;;;;;;;;;;;;;-4.07;100.00;102673.97;5290899;28;19920;-73
2022/12/17 22:25:17;;;;;;;;;;;;;;;-4.10;100.00;102673.91;5279476;28;19939;-73
2022/12/17 22:27:49;;;;;;;;;;;;;;;-4.12;100.00;102681.72;5291374;28;19916;-73
2022/12/17 22:33:10;;;;;;;;;;;;;;;-4.14;100.00;102684.31;5280120;28;19971;-73
2022/12/17 22:35:41;;;;;;;;;;;;;;;-4.17;100.00;102683.38;5294482;28;19955;-73
2022/12/17 22:38:12;;;;;;;;;;;;;;;-4.21;100.00;102674.66;5284545;28;20090;-73
2022/12/17 22:40:43;;;;;;;;;;;;;;;-4.23;100.00;102673.75;5290441;28;19919;-73
2022/12/17 22:43:30;;;;;;;;;;;;;;;-4.27;100.00;102671.97;5291416;28;19963;-73
2022/12/17 22:46:02;;;;;;;;;;;;;;;-4.31;100.00;102662.34;5283301;28;20403;-73
2022/12/17 22:48:34;;;;;;;;;;;;;;;-4.36;100.00;102658.78;5280962;28;19982;-72
2022/12/17 22:51:08;;;;;;;;;;;;;;;-4.39;100.00;102662.25;5287014;28;19961;-71
2022/12/17 22:53:43;;;;;;;;;;;;;;;-4.45;100.00;102659.56;5292257;28;19981;-73
2022/12/17 22:56:14;;;;;;;;;;;;;;;-4.50;100.00;102662.94;5289750;28;19920;-72
2022/12/17 22:58:48;;;;;;;;;;;;;;;-4.55;100.00;102660.25;5296097;28;19923;-72
2022/12/17 23:01:19;;;;;;;;;;;;;;;-4.59;100.00;102663.66;5284343;28;19920;-72
2022/12/17 23:03:54;;;;;;;;;;;;;;;-4.62;100.00;102664.50;5292641;28;20393;-72
2022/12/17 23:06:26;;;;;;;;;;;;;;;-4.66;100.00;102672.22;5288501;28;20312;-72
2022/12/17 23:08:57;;;;;;;;;;;;;;;-4.69;100.00;102677.41;5283148;28;19971;-72
2022/12/17 23:11:30;;;;;;;;;;;;;;;-4.75;100.00;102680.78;5268096;28;19932;-72
2022/12/17 23:14:01;;;;;;;;;;;;;;;-4.77;100.00;102664.25;5292110;28;19920;-72
2022/12/17 23:16:33;;;;;;;;;;;;;;;-4.80;100.00;102646.81;5290021;28;20203;-72
2022/12/17 23:19:05;;;;;;;;;;;;;;;-4.83;100.00;102639.00;5296225;28;20427;-72
2022/12/17 23:21:36;;;;;;;;;;;;;;;-4.87;100.00;102637.19;5294826;28;20417;-72
2022/12/17 23:24:08;;;;;;;;;;;;;;;-4.89;100.00;102632.78;5290510;28;19968;-72
2022/12/17 23:26:39;;;;;;;;;;;;;;;-4.93;100.00;102635.38;5269958;28;19920;-72
2022/12/17 23:29:12;;;;;;;;;;;;;;;-4.97;100.00;102638.72;5293283;28;19920;-72
2022/12/17 23:31:43;;;;;;;;;;;;;;;-4.99;100.00;102648.25;5272378;28;19927;-73
2022/12/17 23:34:14;;;;;;;;;;;;;;;-5.01;100.00;102646.47;5287358;28;19924;-72
2022/12/17 23:36:46;;;;;;;;;;;;;;;-5.07;100.00;102643.78;5284354;28;20372;-72
2022/12/17 23:39:17;;;;;;;;;;;;;;;-5.14;100.00;102647.97;5285290;28;19920;-72
2022/12/17 23:41:48;;;;;;;;;;;;;;;-5.20;100.00;102651.34;5292422;28;20002;-73
2022/12/17 23:44:19;;;;;;;;;;;;;;;-5.21;100.00;102659.16;5294317;28;20298;-72
2022/12/17 23:46:51;;;;;;;;;;;;;;;-5.27;100.00;102652.13;5291063;28;19916;-72
2022/12/17 23:49:22;;;;;;;;;;;;;;;-5.30;100.00;102648.56;5299332;28;19927;-72
2022/12/17 23:51:53;;;;;;;;;;;;;;;-5.32;100.00;102652.00;5292137;28;20443;-72
2022/12/17 23:54:24;;;;;;;;;;;;;;;-5.36;100.00;102668.41;5295660;28;19974;-72
2022/12/17 23:56:56;;;;;;;;;;;;;;;-5.40;100.00;102661.41;5274015;28;20398;-72
2022/12/17 23:59:27;;;;;;;;;;;;;;;-5.44;100.00;102663.94;5291020;28;19927;-72
